createdAt,value
2018-02-17T00:01:07.214Z,69.20
2018-02-17T00:03:34.776Z,69.20
2018-02-17T00:06:02.318Z,69.20
2018-02-17T00:08:30.635Z,69.20
2018-02-17T00:10:58.177Z,69.20
2018-02-17T00:13:25.734Z,69.30
2018-02-17T00:15:53.290Z,69.20
2018-02-17T00:18:20.834Z,69.30
2018-02-17T00:20:49.141Z,69.30
2018-02-17T00:23:16.689Z,69.20
2018-02-17T00:25:44.230Z,69.20
2018-02-17T00:28:12.534Z,69.30
2018-02-17T00:30:40.846Z,69.30
2018-02-17T00:33:08.387Z,69.30
2018-02-17T00:35:35.936Z,69.10
2018-02-17T00:38:03.491Z,69.30
2018-02-17T00:40:31.034Z,69.30
2018-02-17T00:43:01.379Z,69.20
2018-02-17T00:45:28.917Z,69.40
2018-02-17T00:47:57.228Z,69.30
2018-02-17T00:50:24.769Z,69.30
2018-02-17T00:52:52.314Z,69.30
2018-02-17T00:55:20.622Z,69.30
2018-02-17T00:57:48.172Z,69.30
2018-02-17T01:00:15.722Z,69.30
2018-02-17T01:02:43.265Z,69.30
2018-02-17T01:05:11.577Z,69.30
2018-02-17T01:07:39.122Z,69.30
2018-02-17T01:10:06.667Z,69.30
2018-02-17T01:12:34.975Z,69.30
2018-02-17T01:15:02.517Z,69.30
2018-02-17T01:17:30.054Z,69.30
2018-02-17T01:19:58.368Z,69.30
2018-02-17T01:22:25.902Z,69.30
2018-02-17T01:24:54.214Z,69.30
2018-02-17T01:27:21.754Z,69.30
2018-02-17T01:29:49.300Z,69.10
2018-02-17T01:32:16.862Z,69.20
2018-02-17T01:34:44.409Z,69.20
2018-02-17T01:37:12.721Z,69.30
2018-02-17T01:39:40.265Z,69.20
2018-02-17T01:42:07.812Z,69.20
2018-02-17T01:44:35.358Z,69.30
2018-02-17T01:47:03.666Z,69.30
2018-02-17T01:49:31.218Z,69.20
2018-02-17T01:51:58.757Z,69.20
2018-02-17T01:54:27.063Z,69.20
2018-02-17T01:56:54.609Z,69.20
2018-02-17T01:59:22.149Z,69.20
2018-02-17T02:01:50.475Z,69.30
2018-02-17T02:04:18.018Z,69.20
2018-02-17T02:06:45.565Z,69.30
2018-02-17T02:09:13.110Z,69.20
2018-02-17T02:11:41.413Z,69.30
2018-02-17T02:14:08.971Z,69.30
2018-02-17T02:16:36.520Z,69.30
2018-02-17T02:19:04.054Z,69.20
2018-02-17T02:21:32.354Z,69.20
2018-02-17T02:23:59.899Z,69.30
2018-02-17T02:26:28.212Z,69.30
2018-02-17T02:28:55.764Z,69.20
2018-02-17T02:31:23.309Z,69.20
2018-02-17T02:33:50.851Z,69.30
2018-02-17T02:36:19.162Z,69.20
2018-02-17T02:38:46.702Z,69.20
2018-02-17T02:41:14.256Z,69.20
2018-02-17T02:43:41.812Z,69.20
2018-02-17T02:46:09.371Z,69.20
2018-02-17T02:48:36.942Z,69.20
2018-02-17T02:51:04.474Z,69.20
2018-02-17T02:53:32.795Z,69.20
2018-02-17T02:56:00.348Z,69.20
2018-02-17T02:58:28.675Z,69.20
2018-02-17T03:00:56.222Z,69.20
2018-02-17T03:03:23.775Z,69.20
2018-02-17T03:05:51.320Z,70.00
2018-02-17T03:08:18.856Z,69.20
2018-02-17T03:10:46.398Z,69.20
2018-02-17T03:13:13.951Z,69.20
2018-02-17T03:15:41.507Z,69.20
2018-02-17T03:18:09.820Z,69.20
2018-02-17T03:20:37.370Z,69.20
2018-02-17T03:23:04.911Z,69.20
2018-02-17T03:25:32.453Z,69.20
2018-02-17T03:28:00.757Z,69.30
2018-02-17T03:30:28.306Z,69.20
2018-02-17T03:32:55.855Z,69.20
2018-02-17T03:35:23.398Z,69.10
2018-02-17T03:37:50.959Z,69.10
2018-02-17T03:40:19.265Z,69.20
2018-02-17T03:42:46.803Z,69.10
2018-02-17T03:45:15.109Z,69.30
2018-02-17T03:47:42.653Z,69.10
2018-02-17T03:50:10.206Z,69.10
2018-02-17T03:52:37.747Z,69.10
2018-02-17T03:55:06.065Z,69.20
2018-02-17T03:57:33.609Z,69.20
2018-02-17T04:00:01.149Z,69.20
2018-02-17T04:02:28.694Z,69.20
2018-02-17T04:04:57.010Z,69.30
2018-02-17T04:07:24.566Z,69.30
2018-02-17T04:09:52.116Z,69.20
2018-02-17T04:12:19.675Z,69.10
2018-02-17T04:14:47.214Z,69.20
2018-02-17T04:17:14.768Z,69.20
2018-02-17T04:19:42.309Z,69.20
2018-02-17T04:22:10.618Z,69.20
2018-02-17T04:24:38.158Z,69.30
2018-02-17T04:27:06.476Z,69.20
2018-02-17T04:29:34.018Z,69.20
2018-02-17T04:32:01.563Z,69.20
2018-02-17T04:34:29.108Z,69.10
2018-02-17T04:36:57.432Z,69.20
2018-02-17T04:39:24.976Z,69.20
2018-02-17T04:41:58.308Z,69.20
2018-02-17T04:44:31.463Z,69.20
2018-02-17T04:50:23.849Z,69.10
2018-02-17T04:53:07.066Z,69.30
2018-02-17T04:55:45.303Z,69.30
2018-02-17T04:58:22.887Z,69.30
2018-02-17T05:00:51.907Z,69.30
2018-02-17T05:03:31.304Z,69.20
2018-02-17T05:09:06.917Z,69.40
2018-02-17T05:11:34.488Z,69.20
2018-02-17T05:14:02.874Z,69.30
2018-02-17T05:16:36.005Z,69.20
2018-02-17T05:19:05.900Z,69.30
2018-02-17T05:21:33.471Z,69.20
2018-02-17T05:24:05.750Z,69.40
2018-02-17T05:26:36.874Z,69.30
2018-02-17T05:29:04.532Z,69.20
2018-02-17T05:31:34.591Z,69.20
2018-02-17T05:37:07.951Z,69.20
2018-02-17T05:39:51.175Z,69.20
2018-02-17T05:42:31.577Z,69.20
2018-02-17T05:45:04.752Z,69.30
2018-02-17T05:47:32.779Z,69.30
2018-02-17T05:50:04.951Z,69.20
2018-02-17T05:52:32.563Z,69.20
2018-02-17T05:55:00.131Z,69.20
2018-02-17T05:57:28.505Z,69.30
2018-02-17T05:59:56.888Z,69.50
2018-02-17T06:02:25.264Z,69.20
2018-02-17T06:04:53.609Z,69.30
2018-02-17T06:07:21.180Z,69.20
2018-02-17T06:09:48.758Z,69.20
2018-02-17T06:12:16.429Z,69.20
2018-02-17T06:14:44.786Z,69.20
2018-02-17T06:17:12.334Z,69.20
2018-02-17T06:19:41.255Z,69.20
2018-02-17T06:22:09.636Z,69.50
2018-02-17T06:24:38.018Z,69.20
2018-02-17T06:27:06.353Z,69.20
2018-02-17T06:29:33.927Z,69.20
2018-02-17T06:32:01.505Z,69.20
2018-02-17T06:34:29.851Z,69.30
2018-02-17T06:36:57.450Z,69.20
2018-02-17T06:39:25.132Z,69.20
2018-02-17T06:41:53.471Z,69.20
2018-02-17T06:44:21.063Z,69.20
2018-02-17T06:46:49.431Z,69.30
2018-02-17T06:49:17.836Z,69.30
2018-02-17T06:51:45.475Z,69.20
2018-02-17T06:54:13.866Z,69.30
2018-02-17T06:56:42.201Z,69.30
2018-02-17T06:59:10.897Z,69.30
2018-02-17T07:01:39.009Z,69.20
2018-02-17T07:04:07.340Z,69.20
2018-02-17T07:06:35.037Z,69.30
2018-02-17T07:09:03.397Z,69.30
2018-02-17T07:11:30.980Z,69.10
2018-02-17T07:13:59.328Z,69.30
2018-02-17T07:16:26.898Z,69.20
2018-02-17T07:18:55.208Z,69.20
2018-02-17T07:21:23.260Z,69.20
2018-02-17T07:23:50.821Z,69.20
2018-02-17T07:26:18.430Z,69.20
2018-02-17T07:28:46.039Z,69.10
2018-02-17T07:31:14.472Z,69.10
2018-02-17T07:33:42.038Z,69.10
2018-02-17T07:36:09.606Z,69.10
2018-02-17T07:38:37.208Z,69.10
2018-02-17T07:41:05.594Z,69.20
2018-02-17T07:43:33.969Z,69.20
2018-02-17T07:46:02.306Z,69.10
2018-02-17T07:48:29.901Z,69.10
2018-02-17T07:50:57.467Z,69.20
2018-02-17T07:53:25.816Z,69.60
2018-02-17T07:55:53.406Z,69.10
2018-02-17T07:58:21.040Z,69.10
2018-02-17T08:00:49.000Z,69.10
2018-02-17T08:03:16.563Z,69.10
2018-02-17T08:05:44.143Z,69.10
2018-02-17T08:08:11.714Z,69.10
2018-02-17T08:10:41.457Z,69.10
2018-02-17T08:13:09.909Z,69.10
2018-02-17T08:15:38.925Z,68.70
2018-02-17T08:18:06.508Z,69.10
2018-02-17T08:20:34.074Z,69.10
2018-02-17T08:23:01.703Z,69.10
2018-02-17T08:25:30.091Z,69.10
2018-02-17T08:27:57.776Z,69.10
2018-02-17T08:30:25.342Z,69.10
2018-02-17T08:32:52.948Z,69.10
2018-02-17T08:35:20.765Z,69.10
2018-02-17T08:37:48.392Z,69.10
2018-02-17T08:40:16.750Z,69.20
2018-02-17T08:42:45.238Z,69.10
2018-02-17T08:45:12.838Z,69.10
2018-02-17T08:47:40.797Z,69.10
2018-02-17T08:50:08.586Z,69.10
2018-02-17T08:52:36.192Z,69.10
2018-02-17T08:55:05.385Z,69.10
2018-02-17T08:57:34.005Z,69.10
2018-02-17T09:00:01.644Z,69.10
2018-02-17T09:02:29.298Z,69.10
2018-02-17T09:04:56.997Z,69.10
2018-02-17T09:07:24.612Z,69.10
2018-02-17T09:09:52.244Z,69.10
2018-02-17T09:12:20.016Z,69.10
2018-02-17T09:14:47.717Z,69.10
2018-02-17T09:17:15.382Z,69.00
2018-02-17T09:19:43.807Z,69.10
2018-02-17T09:22:11.676Z,69.10
2018-02-17T09:24:40.089Z,69.00
2018-02-17T09:27:07.724Z,69.00
2018-02-17T09:29:35.360Z,69.00
2018-02-17T09:32:03.762Z,69.00
2018-02-17T09:34:31.507Z,69.00
2018-02-17T09:36:59.927Z,69.00
2018-02-17T09:39:27.606Z,69.00
2018-02-17T09:41:55.205Z,69.10
2018-02-17T09:44:23.797Z,69.10
2018-02-17T09:46:51.534Z,69.10
2018-02-17T09:49:19.102Z,69.00
2018-02-17T09:51:46.688Z,69.00
2018-02-17T09:54:14.269Z,69.00
2018-02-17T09:56:41.884Z,69.00
2018-02-17T09:59:09.803Z,69.00
2018-02-17T10:01:37.422Z,69.10
2018-02-17T10:04:05.831Z,69.10
2018-02-17T10:06:33.478Z,69.10
2018-02-17T10:10:56.598Z,69.00
2018-02-17T10:13:24.180Z,69.10
2018-02-17T10:15:51.837Z,69.00
2018-02-17T10:18:19.412Z,69.00
2018-02-17T10:20:47.001Z,69.00
2018-02-17T10:23:14.598Z,69.00
2018-02-17T10:25:42.189Z,69.00
2018-02-17T10:28:10.948Z,69.00
2018-02-17T10:30:39.791Z,69.00
2018-02-17T10:33:07.439Z,69.00
2018-02-17T10:35:35.847Z,69.00
2018-02-17T10:38:03.529Z,69.00
2018-02-17T10:40:31.109Z,68.90
2018-02-17T10:42:59.514Z,68.90
2018-02-17T10:45:27.949Z,68.90
2018-02-17T10:47:55.543Z,68.90
2018-02-17T10:50:23.205Z,68.80
2018-02-17T10:52:50.783Z,68.80
2018-02-17T10:55:18.472Z,68.80
2018-02-17T10:57:46.852Z,68.80
2018-02-17T11:00:15.333Z,68.90
2018-02-17T11:02:42.920Z,68.80
2018-02-17T11:05:11.138Z,68.80
2018-02-17T11:07:39.729Z,68.80
2018-02-17T11:10:07.334Z,68.20
2018-02-17T11:12:35.258Z,68.80
2018-02-17T11:15:03.871Z,68.80
2018-02-17T11:17:31.449Z,68.80
2018-02-17T11:19:59.086Z,68.80
2018-02-17T11:22:27.574Z,68.80
2018-02-17T11:24:55.229Z,68.80
2018-02-17T11:27:23.587Z,68.80
2018-02-17T11:29:51.162Z,68.80
2018-02-17T11:32:20.180Z,68.70
2018-02-17T11:34:47.921Z,68.80
2018-02-17T11:37:16.310Z,68.80
2018-02-17T11:39:45.029Z,68.80
2018-02-17T11:42:12.739Z,68.80
2018-02-17T11:44:41.574Z,68.80
2018-02-17T11:47:09.788Z,68.80
2018-02-17T11:49:37.384Z,68.80
2018-02-17T11:52:04.989Z,68.80
2018-02-17T11:54:33.353Z,68.80
2018-02-17T11:57:00.949Z,68.80
2018-02-17T11:59:28.566Z,68.80
2018-02-17T12:01:56.152Z,68.80
2018-02-17T12:04:23.766Z,68.80
2018-02-17T12:06:52.168Z,68.80
2018-02-17T12:09:19.741Z,68.80
2018-02-17T12:11:47.308Z,68.70
2018-02-17T12:14:14.937Z,68.80
2018-02-17T12:16:43.377Z,68.80
2018-02-17T12:19:17.271Z,68.80
2018-02-17T12:21:45.003Z,68.80
2018-02-17T12:24:12.646Z,68.80
2018-02-17T12:26:41.085Z,68.80
2018-02-17T12:29:09.809Z,68.80
2018-02-17T12:31:37.472Z,68.80
2018-02-17T12:34:05.140Z,68.80
2018-02-17T12:36:34.253Z,68.80
2018-02-17T12:39:03.224Z,68.80
2018-02-17T12:41:30.888Z,68.80
2018-02-17T12:43:59.306Z,68.80
2018-02-17T12:46:26.939Z,68.80
2018-02-17T12:48:54.562Z,68.80
2018-02-17T12:51:22.256Z,68.80
2018-02-17T12:53:50.041Z,68.80
2018-02-17T12:56:17.620Z,69.30
2018-02-17T12:58:45.285Z,68.80
2018-02-17T13:01:12.954Z,68.80
2018-02-17T13:03:40.579Z,68.80
2018-02-17T13:06:10.370Z,68.80
2018-02-17T13:08:37.974Z,68.80
2018-02-17T13:11:05.546Z,67.20
2018-02-17T13:13:33.152Z,64.10
2018-02-17T13:16:00.738Z,62.90
2018-02-17T13:18:29.243Z,61.10
2018-02-17T13:20:56.910Z,61.10
2018-02-17T13:23:24.501Z,60.60
2018-02-17T13:25:52.883Z,59.60
2018-02-17T13:28:25.664Z,59.50
2018-02-17T13:30:53.382Z,59.20
2018-02-17T13:33:21.088Z,58.70
2018-02-17T13:35:50.392Z,58.20
2018-02-17T13:38:18.162Z,58.30
2018-02-17T13:40:45.768Z,58.10
2018-02-17T13:43:13.500Z,58.10
2018-02-17T13:45:41.258Z,57.80
2018-02-17T13:48:09.031Z,57.60
2018-02-17T13:50:36.724Z,57.60
2018-02-17T13:53:05.098Z,57.40
2018-02-17T13:55:33.624Z,57.50
2018-02-17T13:58:01.336Z,57.50
2018-02-17T14:00:29.138Z,57.40
2018-02-17T14:02:56.909Z,57.70
2018-02-17T14:05:24.673Z,57.20
2018-02-17T14:07:52.444Z,57.20
2018-02-17T14:10:20.038Z,57.10
2018-02-17T14:12:47.639Z,57.10
2018-02-17T14:15:16.021Z,57.60
2018-02-17T14:17:44.372Z,56.80
2018-02-17T14:20:12.073Z,56.80
2018-02-17T14:22:40.352Z,56.90
2018-02-17T14:25:10.029Z,57.00
2018-02-17T14:27:37.627Z,57.00
2018-02-17T14:30:05.208Z,56.60
2018-02-17T14:32:32.778Z,56.90
2018-02-17T14:35:00.365Z,56.80
2018-02-17T14:37:27.935Z,57.00
2018-02-17T14:39:55.611Z,57.20
2018-02-17T14:42:23.992Z,57.10
2018-02-17T14:44:52.341Z,57.10
2018-02-17T14:47:19.925Z,57.10
2018-02-17T14:49:48.303Z,57.00
2018-02-17T14:52:16.654Z,57.00
2018-02-17T14:54:44.228Z,56.90
2018-02-17T14:57:11.808Z,56.90
2018-02-17T14:59:41.324Z,57.00
2018-02-17T15:02:10.809Z,57.00
2018-02-17T15:04:40.391Z,57.10
2018-02-17T15:07:07.990Z,57.10
2018-02-17T15:09:36.345Z,57.00
2018-02-17T15:12:04.065Z,57.00
2018-02-17T15:14:31.679Z,56.90
2018-02-17T15:16:59.398Z,56.90
2018-02-17T15:19:26.981Z,56.80
2018-02-17T15:21:54.688Z,57.00
2018-02-17T15:24:23.038Z,57.20
2018-02-17T15:26:50.619Z,57.20
2018-02-17T15:29:19.016Z,57.60
2018-02-17T15:31:46.633Z,57.00
2018-02-17T15:34:14.214Z,57.10
2018-02-17T15:36:41.799Z,56.90
2018-02-17T15:39:11.697Z,56.80
2018-02-17T15:41:41.110Z,56.90
2018-02-17T15:44:09.706Z,57.00
2018-02-17T15:46:37.306Z,57.00
2018-02-17T15:49:04.886Z,57.00
2018-02-17T15:51:32.543Z,57.10
2018-02-17T15:54:00.151Z,57.20
2018-02-17T15:56:28.509Z,57.20
2018-02-17T15:58:56.194Z,57.10
2018-02-17T16:01:24.572Z,57.30
2018-02-17T16:03:52.938Z,57.30
2018-02-17T16:06:21.299Z,57.20
2018-02-17T16:08:48.891Z,57.10
2018-02-17T16:11:17.261Z,58.30
2018-02-17T16:13:45.619Z,59.10
2018-02-17T16:16:14.725Z,59.80
2018-02-17T16:18:42.535Z,59.80
2018-02-17T16:21:11.221Z,60.50
2018-02-17T16:23:38.974Z,61.30
2018-02-17T16:26:06.553Z,62.00
2018-02-17T16:28:34.341Z,61.70
2018-02-17T16:31:01.955Z,60.80
2018-02-17T16:33:29.687Z,59.90
2018-02-17T16:35:57.433Z,59.60
2018-02-17T16:38:25.028Z,59.30
2018-02-17T16:40:52.702Z,59.60
2018-02-17T16:43:20.372Z,59.50
2018-02-17T16:45:48.734Z,58.60
2018-02-17T16:48:17.115Z,58.40
2018-02-17T16:50:45.514Z,58.20
2018-02-17T16:53:13.165Z,58.20
2018-02-17T16:55:41.167Z,57.80
2018-02-17T16:58:09.850Z,57.90
2018-02-17T17:00:37.480Z,57.80
2018-02-17T17:03:05.823Z,58.00
2018-02-17T17:05:33.443Z,57.60
2018-02-17T17:08:01.098Z,57.60
2018-02-17T17:10:29.453Z,57.50
2018-02-17T17:12:58.269Z,57.60
2018-02-17T17:15:25.888Z,57.60
2018-02-17T17:17:53.614Z,57.50
2018-02-17T17:20:21.289Z,57.40
2018-02-17T17:22:48.875Z,57.50
2018-02-17T17:25:16.481Z,57.60
2018-02-17T17:27:44.066Z,57.50
2018-02-17T17:30:11.659Z,57.40
2018-02-17T17:32:39.867Z,57.20
2018-02-17T17:35:08.933Z,57.40
2018-02-17T17:37:36.600Z,57.40
2018-02-17T17:40:04.304Z,57.40
2018-02-17T17:42:31.949Z,57.30
2018-02-17T17:45:00.312Z,57.30
2018-02-17T17:47:28.027Z,57.20
2018-02-17T17:49:55.613Z,57.30
2018-02-17T17:52:23.226Z,57.20
2018-02-17T17:54:50.938Z,57.30
2018-02-17T17:57:18.525Z,57.30
2018-02-17T17:59:46.113Z,57.30
2018-02-17T18:02:14.491Z,57.30
2018-02-17T18:04:42.929Z,57.30
2018-02-17T18:07:11.340Z,57.30
2018-02-17T18:09:40.376Z,57.20
2018-02-17T18:12:08.018Z,57.20
2018-02-17T18:14:35.639Z,57.30
2018-02-17T18:17:03.272Z,57.30
2018-02-17T18:19:30.879Z,57.20
2018-02-17T18:21:59.285Z,57.40
2018-02-17T18:24:26.935Z,57.30
2018-02-17T18:26:55.276Z,57.20
2018-02-17T18:29:23.635Z,57.30
2018-02-17T18:31:51.277Z,57.50
2018-02-17T18:34:19.133Z,57.30
2018-02-17T18:36:46.789Z,57.30
2018-02-17T18:39:15.323Z,57.50
2018-02-17T18:41:43.253Z,57.50
2018-02-17T18:44:10.867Z,57.30
2018-02-17T18:46:38.985Z,57.20
2018-02-17T18:49:06.814Z,57.40
2018-02-17T18:51:34.823Z,57.40
2018-02-17T18:54:03.206Z,57.50
2018-02-17T18:56:30.853Z,57.50
2018-02-17T18:58:59.295Z,58.70
2018-02-17T19:01:26.945Z,58.70
2018-02-17T19:03:55.358Z,60.10
2018-02-17T19:06:22.940Z,60.10
2018-02-17T19:08:51.298Z,61.60
2018-02-17T19:11:20.374Z,62.30
2018-02-17T19:13:47.970Z,62.20
2018-02-17T19:16:16.418Z,63.40
2018-02-17T19:18:44.017Z,63.40
2018-02-17T19:21:12.374Z,64.10
2018-02-17T19:23:41.121Z,64.10
2018-02-17T19:26:09.407Z,64.40
2018-02-17T19:28:37.832Z,65.10
2018-02-17T19:31:05.421Z,65.10
2018-02-17T19:33:33.013Z,65.30
2018-02-17T19:36:00.650Z,65.50
2018-02-17T19:38:28.510Z,65.80
2018-02-17T19:40:56.162Z,65.90
2018-02-17T19:43:24.578Z,66.40
2018-02-17T19:45:52.163Z,66.20
2018-02-17T19:48:19.746Z,66.40
2018-02-17T19:50:47.429Z,66.50
2018-02-17T19:53:15.807Z,66.70
2018-02-17T19:55:44.193Z,66.90
2018-02-17T19:58:11.851Z,66.90
2018-02-17T20:00:40.525Z,67.00
2018-02-17T20:03:10.237Z,67.90
2018-02-17T20:05:38.093Z,67.10
2018-02-17T20:08:07.279Z,67.20
2018-02-17T20:10:34.870Z,67.20
2018-02-17T20:13:03.238Z,67.40
2018-02-17T20:15:30.983Z,67.30
2018-02-17T20:17:58.574Z,67.40
2018-02-17T20:20:26.937Z,67.50
2018-02-17T20:22:54.527Z,67.50
2018-02-17T20:25:22.945Z,67.70
2018-02-17T20:27:50.618Z,67.70
2018-02-17T20:30:18.215Z,67.70
2018-02-17T20:32:46.004Z,67.80
2018-02-17T20:35:13.603Z,67.80
2018-02-17T20:37:41.202Z,67.80
2018-02-17T20:40:10.199Z,67.70
2018-02-17T20:42:39.010Z,67.80
2018-02-17T20:45:07.377Z,67.90
2018-02-17T20:47:34.980Z,67.90
2018-02-17T20:50:02.568Z,67.90
2018-02-17T20:52:30.172Z,67.90
2018-02-17T20:54:57.854Z,67.90
2018-02-17T20:57:25.446Z,67.90
2018-02-17T20:59:53.055Z,67.90
2018-02-17T21:02:21.515Z,68.00
2018-02-17T21:04:49.078Z,68.00
2018-02-17T21:07:17.430Z,68.00
2018-02-17T21:09:45.153Z,67.90
2018-02-17T21:12:13.549Z,68.00
2018-02-17T21:14:41.224Z,68.00
2018-02-17T21:17:09.429Z,67.90
2018-02-17T21:19:37.120Z,68.50
2018-02-17T21:22:05.469Z,68.00
2018-02-17T21:24:33.100Z,68.00
2018-02-17T21:27:00.706Z,67.90
2018-02-17T21:29:29.046Z,68.10
2018-02-17T21:31:56.647Z,68.00
2018-02-17T21:34:25.095Z,68.20
2018-02-17T21:36:52.641Z,68.10
2018-02-17T21:39:20.234Z,68.10
2018-02-17T21:41:47.851Z,68.10
2018-02-17T21:44:15.423Z,68.10
2018-02-17T21:46:43.260Z,68.10
2018-02-17T21:49:10.873Z,68.10
2018-02-17T21:51:39.679Z,68.00
2018-02-17T21:54:08.076Z,68.10
2018-02-17T21:56:35.753Z,68.10
2018-02-17T21:59:03.456Z,68.10
2018-02-17T22:01:31.903Z,68.00
2018-02-17T22:03:59.662Z,68.00
2018-02-17T22:06:27.429Z,68.10
2018-02-17T22:08:55.034Z,68.10
2018-02-17T22:11:22.663Z,68.10
2018-02-17T22:13:50.245Z,68.10
2018-02-17T22:16:17.957Z,68.10
2018-02-17T22:18:45.551Z,68.00
2018-02-17T22:21:13.192Z,68.00
2018-02-17T22:23:41.566Z,68.10
2018-02-17T22:26:11.286Z,68.10
2018-02-17T22:28:40.686Z,68.10
2018-02-17T22:31:09.978Z,68.10
2018-02-17T22:33:39.092Z,68.10
2018-02-17T22:36:07.433Z,68.10
2018-02-17T22:38:35.027Z,68.10
2018-02-17T22:41:03.366Z,68.20
2018-02-17T22:43:30.954Z,68.20
2018-02-17T22:45:59.299Z,68.10
2018-02-17T22:48:26.873Z,68.10
2018-02-17T22:50:54.462Z,68.10
2018-02-17T22:53:22.803Z,68.10
2018-02-17T22:55:50.377Z,68.10
2018-02-17T22:58:17.952Z,68.10
2018-02-17T23:00:45.541Z,68.10
2018-02-17T23:03:13.185Z,68.10
2018-02-17T23:05:41.537Z,68.20
2018-02-17T23:08:09.848Z,68.10
2018-02-17T23:10:38.204Z,68.20
2018-02-17T23:13:08.200Z,68.00
2018-02-17T23:15:36.728Z,68.20
2018-02-17T23:18:05.097Z,68.00
2018-02-17T23:20:33.479Z,68.10
2018-02-17T23:23:01.813Z,68.10
2018-02-17T23:25:29.413Z,68.10
2018-02-17T23:27:57.003Z,68.10
2018-02-17T23:30:24.568Z,68.10
2018-02-17T23:32:52.201Z,68.10
2018-02-17T23:35:20.584Z,68.20
2018-02-17T23:37:48.938Z,68.20
2018-02-17T23:40:16.512Z,68.20
2018-02-17T23:42:44.101Z,68.10
2018-02-17T23:45:11.758Z,68.10
2018-02-17T23:47:39.745Z,68.20
2018-02-17T23:50:07.373Z,68.20
2018-02-17T23:52:35.739Z,68.50
2018-02-17T23:55:03.419Z,68.20
2018-02-17T23:57:31.793Z,68.10
2018-02-17T23:59:59.370Z,68.10
